createdAt,value
2023-05-09T00:00:30.296Z,15.70
2023-05-09T00:03:00.994Z,15.70
2023-05-09T00:05:29.831Z,15.70
2023-05-09T00:07:58.577Z,15.80
2023-05-09T00:10:28.481Z,15.70
2023-05-09T00:12:57.465Z,15.80
2023-05-09T00:15:26.800Z,15.70
2023-05-09T00:17:55.380Z,15.70
2023-05-09T00:20:25.504Z,15.60
2023-05-09T00:22:55.515Z,15.60
2023-05-09T00:25:24.118Z,15.70
2023-05-09T00:27:52.863Z,15.60
2023-05-09T00:30:22.056Z,15.60
2023-05-09T00:32:51.403Z,15.40
2023-05-09T00:35:19.886Z,15.20
2023-05-09T00:37:52.129Z,15.10
2023-05-09T00:40:22.031Z,14.90
2023-05-09T00:42:53.102Z,14.90
2023-05-09T00:45:22.090Z,14.80
2023-05-09T00:47:50.661Z,14.70
2023-05-09T00:50:19.887Z,14.60
2023-05-09T00:52:50.006Z,14.60
2023-05-09T00:55:19.351Z,14.60
2023-05-09T00:57:47.889Z,14.60
2023-05-09T01:00:17.963Z,14.60
2023-05-09T01:02:51.173Z,14.50
2023-05-09T01:05:20.554Z,14.50
2023-05-09T01:08:03.496Z,14.50
2023-05-09T01:10:44.713Z,14.40
2023-05-09T01:13:24.943Z,14.40
2023-05-09T01:16:06.109Z,14.30
2023-05-09T01:18:44.939Z,14.20
2023-05-09T01:21:21.077Z,14.20
2023-05-09T01:24:26.979Z,14.10
2023-05-09T01:27:29.915Z,14.10
2023-05-09T01:30:04.622Z,14.10
2023-05-09T01:32:37.117Z,14.10
2023-05-09T01:35:11.299Z,14.10
2023-05-09T01:37:46.359Z,14.00
2023-05-09T01:40:20.321Z,14.00
2023-05-09T01:42:57.468Z,13.90
2023-05-09T01:45:29.547Z,13.90
2023-05-09T01:47:59.806Z,13.90
2023-05-09T01:50:31.215Z,13.90
2023-05-09T01:53:03.075Z,13.80
2023-05-09T01:55:36.973Z,13.70
2023-05-09T01:58:07.619Z,13.70
2023-05-09T02:00:39.115Z,13.60
2023-05-09T02:03:08.931Z,13.60
2023-05-09T02:05:39.772Z,13.60
2023-05-09T02:08:09.782Z,13.70
2023-05-09T02:10:40.060Z,13.70
2023-05-09T02:13:08.580Z,13.70
2023-05-09T02:15:39.006Z,13.70
2023-05-09T02:18:07.929Z,13.60
2023-05-09T02:20:36.691Z,13.60
2023-05-09T02:23:05.385Z,13.60
2023-05-09T02:25:35.929Z,13.60
2023-05-09T02:28:05.272Z,13.60
2023-05-09T02:30:43.349Z,13.60
2023-05-09T02:33:15.396Z,13.60
2023-05-09T02:35:46.748Z,13.60
2023-05-09T02:38:16.054Z,13.60
2023-05-09T02:40:45.546Z,13.60
2023-05-09T02:43:15.331Z,13.70
2023-05-09T02:45:45.460Z,13.70
2023-05-09T02:48:14.012Z,13.70
2023-05-09T02:50:43.541Z,13.70
2023-05-09T02:53:12.115Z,13.70
2023-05-09T02:55:41.995Z,13.70
2023-05-09T02:58:14.581Z,13.60
2023-05-09T03:00:45.108Z,13.50
2023-05-09T03:03:13.932Z,13.50
2023-05-09T03:05:43.701Z,13.50
2023-05-09T03:08:12.249Z,13.50
2023-05-09T03:10:41.034Z,13.50
2023-05-09T03:13:10.579Z,13.50
2023-05-09T03:15:39.244Z,13.50
2023-05-09T03:18:09.538Z,13.50
2023-05-09T03:20:38.322Z,13.50
2023-05-09T03:23:07.100Z,13.50
2023-05-09T03:25:35.831Z,13.40
2023-05-09T03:28:04.482Z,13.30
2023-05-09T03:30:33.561Z,13.20
2023-05-09T03:33:05.000Z,13.10
2023-05-09T03:35:35.038Z,13.10
2023-05-09T03:38:03.614Z,13.10
2023-05-09T03:40:32.299Z,13.00
2023-05-09T03:43:00.915Z,13.00
2023-05-09T03:45:29.448Z,13.00
2023-05-09T03:47:58.106Z,13.00
2023-05-09T03:50:27.159Z,13.00
2023-05-09T03:52:57.472Z,13.00
2023-05-09T03:55:27.853Z,13.00
2023-05-09T03:57:56.678Z,13.00
2023-05-09T04:00:26.619Z,13.00
2023-05-09T04:02:55.654Z,13.10
2023-05-09T04:05:29.483Z,13.10
2023-05-09T04:07:59.788Z,13.10
2023-05-09T04:10:28.613Z,13.10
2023-05-09T04:12:57.358Z,13.10
2023-05-09T04:15:25.861Z,13.10
2023-05-09T04:17:54.668Z,13.10
2023-05-09T04:20:23.670Z,13.00
2023-05-09T04:22:52.162Z,13.00
2023-05-09T04:25:22.703Z,13.10
2023-05-09T04:27:51.390Z,13.20
2023-05-09T04:30:21.424Z,13.20
2023-05-09T04:32:50.116Z,13.30
2023-05-09T04:35:20.543Z,13.40
2023-05-09T04:37:49.613Z,13.40
2023-05-09T04:40:18.266Z,13.50
2023-05-09T04:42:48.347Z,13.50
2023-05-09T04:45:17.583Z,13.50
2023-05-09T04:47:46.789Z,13.50
2023-05-09T04:50:15.494Z,13.60
2023-05-09T04:52:44.356Z,13.60
2023-05-09T04:55:13.086Z,13.70
2023-05-09T04:57:41.924Z,13.70
2023-05-09T05:00:16.074Z,13.80
2023-05-09T05:02:45.141Z,13.80
2023-05-09T05:05:14.344Z,13.80
2023-05-09T05:07:43.217Z,13.80
2023-05-09T05:10:12.651Z,13.80
2023-05-09T05:12:41.385Z,13.90
2023-05-09T05:15:14.081Z,13.90
2023-05-09T05:17:42.981Z,14.00
2023-05-09T05:20:13.495Z,14.00
2023-05-09T05:22:42.861Z,14.10
2023-05-09T05:25:15.564Z,14.10
2023-05-09T05:27:44.641Z,14.20
2023-05-09T05:30:19.184Z,14.20
2023-05-09T05:32:49.523Z,14.30
2023-05-09T05:35:19.442Z,14.40
2023-05-09T05:37:54.149Z,14.40
2023-05-09T05:40:22.670Z,14.50
2023-05-09T05:42:51.216Z,14.60
2023-05-09T05:45:23.194Z,14.60
2023-05-09T05:47:51.759Z,14.60
2023-05-09T05:50:21.210Z,14.70
2023-05-09T05:52:50.132Z,14.70
2023-05-09T05:55:18.981Z,14.70
2023-05-09T05:57:49.053Z,14.70
2023-05-09T06:00:34.774Z,14.70
2023-05-09T06:03:03.332Z,14.80
2023-05-09T06:05:32.044Z,14.80
2023-05-09T06:08:00.774Z,14.80
2023-05-09T06:10:29.398Z,14.70
2023-05-09T06:12:58.183Z,14.70
2023-05-09T06:15:28.407Z,14.90
2023-05-09T06:17:57.092Z,14.90
2023-05-09T06:20:25.668Z,15.00
2023-05-09T06:22:54.315Z,15.10
2023-05-09T06:25:22.949Z,15.30
2023-05-09T06:27:51.501Z,15.50
2023-05-09T06:30:26.179Z,15.70
2023-05-09T06:32:58.421Z,16.00
2023-05-09T06:35:27.406Z,16.30
2023-05-09T06:37:56.081Z,16.50
2023-05-09T06:40:24.621Z,16.70
2023-05-09T06:42:53.125Z,16.80
2023-05-09T06:45:22.048Z,16.80
2023-05-09T06:47:50.832Z,16.80
2023-05-09T06:50:21.619Z,16.80
2023-05-09T06:52:50.171Z,16.90
2023-05-09T06:55:18.924Z,17.00
2023-05-09T06:57:47.425Z,17.30
2023-05-09T07:00:18.050Z,17.40
2023-05-09T07:02:46.876Z,17.40
2023-05-09T07:05:16.529Z,17.40
2023-05-09T07:07:46.688Z,17.20
2023-05-09T07:10:15.653Z,17.20
2023-05-09T07:12:44.355Z,17.10
2023-05-09T07:15:13.435Z,17.20
2023-05-09T07:17:42.375Z,17.40
2023-05-09T07:20:11.963Z,17.50
2023-05-09T07:22:41.232Z,17.70
2023-05-09T07:25:12.037Z,17.90
2023-05-09T07:27:40.908Z,18.10
2023-05-09T07:30:10.774Z,18.20
2023-05-09T07:32:39.488Z,18.30
2023-05-09T07:35:09.139Z,18.50
2023-05-09T07:37:37.756Z,18.70
2023-05-09T07:40:08.193Z,18.80
2023-05-09T07:42:38.586Z,19.00
2023-05-09T07:45:08.893Z,19.20
2023-05-09T07:47:37.477Z,19.50
2023-05-09T07:50:07.854Z,19.60
2023-05-09T07:52:36.503Z,19.70
2023-05-09T07:55:05.971Z,19.90
2023-05-09T07:57:34.475Z,20.00
2023-05-09T08:00:06.460Z,20.20
2023-05-09T08:02:35.574Z,20.20
2023-05-09T08:05:04.722Z,20.20
2023-05-09T08:07:33.612Z,20.20
2023-05-09T08:10:02.175Z,20.20
2023-05-09T08:12:31.055Z,20.20
2023-05-09T08:14:59.636Z,20.50
2023-05-09T08:17:29.942Z,20.60
2023-05-09T08:19:58.706Z,20.60
2023-05-09T08:22:27.325Z,20.70
2023-05-09T08:24:56.034Z,20.80
2023-05-09T08:27:24.670Z,21.10
2023-05-09T08:29:53.308Z,21.10
2023-05-09T08:32:22.247Z,21.30
2023-05-09T08:34:52.614Z,21.50
2023-05-09T08:37:21.306Z,21.60
2023-05-09T08:39:50.085Z,21.80
2023-05-09T08:42:25.514Z,21.90
2023-05-09T08:44:54.957Z,21.90
2023-05-09T08:47:24.845Z,22.00
2023-05-09T08:49:54.960Z,22.20
2023-05-09T08:52:24.117Z,22.30
2023-05-09T08:54:53.864Z,22.50
2023-05-09T08:57:22.796Z,22.50
2023-05-09T08:59:53.033Z,22.40
2023-05-09T09:02:22.881Z,22.50
2023-05-09T09:04:51.784Z,22.40
2023-05-09T09:07:23.036Z,22.50
2023-05-09T09:09:54.250Z,22.70
2023-05-09T09:12:25.328Z,22.90
2023-05-09T09:14:56.904Z,23.00
2023-05-09T09:17:29.739Z,23.10
2023-05-09T09:20:05.956Z,23.20
2023-05-09T09:22:38.279Z,23.40
2023-05-09T09:25:07.619Z,23.60
2023-05-09T09:27:37.002Z,23.70
2023-05-09T09:30:10.128Z,23.80
2023-05-09T09:32:40.385Z,24.00
2023-05-09T09:35:11.462Z,24.20
2023-05-09T09:37:43.615Z,24.30
2023-05-09T09:40:14.660Z,24.50
2023-05-09T09:42:46.477Z,24.30
2023-05-09T09:45:18.868Z,24.50
2023-05-09T09:47:50.110Z,24.60
2023-05-09T09:50:23.432Z,24.60
2023-05-09T09:52:56.058Z,24.80
2023-05-09T09:55:26.653Z,24.80
2023-05-09T09:57:55.303Z,24.80
2023-05-09T10:00:30.108Z,24.70
2023-05-09T10:03:00.074Z,24.80
2023-05-09T10:05:31.392Z,24.60
2023-05-09T10:08:05.397Z,24.50
2023-05-09T10:10:37.077Z,24.50
2023-05-09T10:13:09.640Z,24.50
2023-05-09T10:15:52.432Z,24.60
2023-05-09T10:18:28.654Z,24.80
2023-05-09T10:21:02.092Z,24.80
2023-05-09T10:23:35.736Z,24.90
2023-05-09T10:26:17.830Z,25.00
2023-05-09T10:28:50.565Z,25.10
2023-05-09T10:31:27.322Z,25.20
2023-05-09T10:33:57.406Z,25.30
2023-05-09T10:36:26.127Z,25.40
2023-05-09T10:38:57.383Z,25.50
2023-05-09T10:41:27.077Z,25.50
2023-05-09T10:43:58.311Z,25.60
2023-05-09T10:46:27.962Z,25.80
2023-05-09T10:48:57.319Z,26.00
2023-05-09T10:51:27.504Z,26.00
2023-05-09T10:53:58.068Z,26.20
2023-05-09T10:56:32.025Z,26.30
2023-05-09T10:59:01.631Z,26.30
2023-05-09T11:01:34.933Z,26.40
2023-05-09T11:04:11.498Z,26.40
2023-05-09T11:06:51.632Z,26.40
2023-05-09T11:09:38.290Z,26.30
2023-05-09T11:12:12.415Z,26.30
2023-05-09T11:14:44.707Z,26.30
2023-05-09T11:17:16.039Z,26.40
2023-05-09T11:20:05.784Z,26.60
2023-05-09T11:22:42.791Z,26.70
2023-05-09T11:25:14.968Z,27.00
2023-05-09T11:27:47.078Z,27.00
2023-05-09T11:30:18.299Z,27.20
2023-05-09T11:32:51.914Z,27.20
2023-05-09T11:35:23.511Z,27.40
2023-05-09T11:37:55.326Z,27.50
2023-05-09T11:40:25.947Z,27.70
2023-05-09T11:42:58.661Z,27.80
2023-05-09T11:45:30.224Z,28.00
2023-05-09T11:48:00.769Z,28.10
2023-05-09T11:50:29.804Z,28.20
2023-05-09T11:52:58.711Z,28.10
2023-05-09T11:55:30.637Z,27.70
2023-05-09T11:58:00.480Z,27.50
2023-05-09T12:00:29.211Z,27.40
2023-05-09T12:02:58.460Z,27.50
2023-05-09T12:05:27.394Z,27.80
2023-05-09T12:07:57.048Z,27.70
2023-05-09T12:10:27.082Z,27.50
2023-05-09T12:12:57.194Z,27.50
2023-05-09T12:15:26.019Z,27.50
2023-05-09T12:18:05.990Z,27.40
2023-05-09T12:20:51.174Z,27.30
2023-05-09T12:23:20.830Z,27.20
2023-05-09T12:25:55.027Z,27.10
2023-05-09T12:28:25.903Z,27.20
2023-05-09T12:30:55.723Z,27.40
2023-05-09T12:33:25.080Z,27.50
2023-05-09T12:36:05.941Z,27.60
2023-05-09T12:38:36.086Z,27.60
2023-05-09T12:41:15.458Z,27.50
2023-05-09T12:43:52.306Z,27.20
2023-05-09T12:46:23.059Z,27.40
2023-05-09T12:48:51.893Z,27.50
2023-05-09T12:51:21.913Z,27.20
2023-05-09T12:53:51.457Z,27.00
2023-05-09T12:56:24.328Z,26.90
2023-05-09T12:58:55.998Z,27.20
2023-05-09T13:01:31.055Z,27.60
2023-05-09T13:04:04.897Z,27.80
2023-05-09T13:06:34.566Z,27.20
2023-05-09T13:09:06.817Z,27.00
2023-05-09T13:11:38.093Z,26.70
2023-05-09T13:14:07.177Z,26.60
2023-05-09T13:16:36.602Z,26.70
2023-05-09T13:19:05.559Z,26.80
2023-05-09T13:21:34.433Z,26.90
2023-05-09T13:24:03.375Z,27.00
2023-05-09T13:26:32.211Z,27.00
2023-05-09T13:29:02.557Z,27.00
2023-05-09T13:31:32.163Z,27.20
2023-05-09T13:34:00.902Z,27.40
2023-05-09T13:36:29.688Z,27.60
2023-05-09T13:38:58.581Z,27.90
2023-05-09T13:41:27.311Z,28.10
2023-05-09T13:43:56.006Z,28.30
2023-05-09T13:46:26.405Z,28.40
2023-05-09T13:48:55.608Z,28.30
2023-05-09T13:51:24.194Z,28.50
2023-05-09T13:53:52.999Z,28.60
2023-05-09T13:56:22.932Z,28.60
2023-05-09T13:58:51.526Z,28.40
2023-05-09T14:01:20.168Z,28.60
2023-05-09T14:03:50.379Z,28.60
2023-05-09T14:06:18.972Z,28.50
2023-05-09T14:08:47.477Z,28.30
2023-05-09T14:11:16.530Z,28.30
2023-05-09T14:13:45.493Z,28.60
2023-05-09T14:16:14.759Z,28.80
2023-05-09T14:18:43.339Z,29.00
2023-05-09T14:21:14.012Z,29.30
2023-05-09T14:23:43.872Z,29.40
2023-05-09T14:26:12.816Z,29.50
2023-05-09T14:28:41.543Z,29.30
2023-05-09T14:31:10.424Z,28.80
2023-05-09T14:33:40.399Z,28.20
2023-05-09T14:36:09.702Z,27.90
2023-05-09T14:38:40.624Z,27.70
2023-05-09T14:41:10.612Z,27.50
2023-05-09T14:43:40.522Z,27.40
2023-05-09T14:46:09.449Z,27.40
2023-05-09T14:48:38.398Z,27.40
2023-05-09T14:51:08.127Z,27.50
2023-05-09T14:53:41.749Z,27.50
2023-05-09T14:56:11.932Z,27.50
2023-05-09T14:58:40.863Z,27.60
2023-05-09T15:01:09.365Z,27.70
2023-05-09T15:03:39.434Z,27.80
2023-05-09T15:06:09.467Z,27.90
2023-05-09T15:08:39.542Z,28.00
2023-05-09T15:11:08.599Z,27.90
2023-05-09T15:13:37.677Z,27.60
2023-05-09T15:16:07.458Z,27.40
2023-05-09T15:18:36.298Z,27.20
2023-05-09T15:21:05.666Z,26.90
2023-05-09T15:23:34.252Z,26.70
2023-05-09T15:26:04.950Z,26.50
2023-05-09T15:28:33.979Z,26.50
2023-05-09T15:31:03.422Z,26.50
2023-05-09T15:33:33.021Z,26.30
2023-05-09T15:36:02.173Z,26.30
2023-05-09T15:38:31.101Z,26.20
2023-05-09T15:40:59.737Z,26.20
2023-05-09T15:43:29.867Z,26.30
2023-05-09T15:45:58.409Z,26.20
2023-05-09T15:48:27.387Z,26.30
2023-05-09T15:50:55.969Z,26.30
2023-05-09T15:53:24.700Z,26.10
2023-05-09T15:55:53.248Z,26.00
2023-05-09T15:58:22.516Z,25.70
2023-05-09T16:00:52.632Z,25.60
2023-05-09T16:03:22.064Z,25.50
2023-05-09T16:05:51.031Z,25.60
2023-05-09T16:08:20.136Z,25.70
2023-05-09T16:10:49.323Z,25.60
2023-05-09T16:13:18.482Z,25.20
2023-05-09T16:15:48.269Z,25.20
2023-05-09T16:18:18.808Z,25.20
2023-05-09T16:20:47.337Z,25.30
2023-05-09T16:23:16.083Z,25.30
2023-05-09T16:25:45.047Z,25.30
2023-05-09T16:28:13.685Z,25.20
2023-05-09T16:30:42.284Z,25.00
2023-05-09T16:33:11.040Z,25.00
2023-05-09T16:35:41.217Z,24.80
2023-05-09T16:38:09.781Z,24.60
2023-05-09T16:40:38.676Z,24.40
2023-05-09T16:43:07.822Z,24.10
2023-05-09T16:45:38.745Z,24.00
2023-05-09T16:48:08.037Z,23.90
2023-05-09T16:50:37.490Z,23.90
2023-05-09T16:53:07.365Z,23.70
2023-05-09T16:55:36.112Z,23.50
2023-05-09T16:58:04.834Z,23.50
2023-05-09T17:00:33.741Z,23.60
2023-05-09T17:03:02.245Z,23.50
2023-05-09T17:05:31.698Z,23.50
2023-05-09T17:08:00.241Z,23.40
2023-05-09T17:10:30.217Z,23.40
2023-05-09T17:12:58.964Z,23.20
2023-05-09T17:15:29.484Z,23.00
2023-05-09T17:17:58.096Z,23.00
2023-05-09T17:20:28.909Z,22.80
2023-05-09T17:22:57.759Z,22.70
2023-05-09T17:25:26.397Z,22.50
2023-05-09T17:27:56.582Z,22.40
2023-05-09T17:30:26.338Z,22.30
2023-05-09T17:32:55.244Z,22.30
2023-05-09T17:35:26.026Z,22.40
2023-05-09T17:37:54.558Z,22.40
2023-05-09T17:40:23.378Z,22.40
2023-05-09T17:42:51.894Z,22.30
2023-05-09T17:45:22.280Z,22.40
2023-05-09T17:47:50.884Z,22.40
2023-05-09T17:50:20.916Z,22.50
2023-05-09T17:52:50.299Z,22.60
2023-05-09T17:55:19.116Z,22.60
2023-05-09T17:57:47.611Z,22.60
2023-05-09T18:00:17.737Z,22.60
2023-05-09T18:02:48.243Z,22.50
2023-05-09T18:05:17.009Z,22.40
2023-05-09T18:07:45.626Z,22.50
2023-05-09T18:10:14.669Z,22.40
2023-05-09T18:12:45.252Z,22.30
2023-05-09T18:15:14.132Z,22.30
2023-05-09T18:17:42.988Z,22.10
2023-05-09T18:20:14.302Z,22.10
2023-05-09T18:22:43.155Z,21.90
2023-05-09T18:25:12.105Z,21.80
2023-05-09T18:27:40.974Z,21.80
2023-05-09T18:30:10.925Z,21.80
2023-05-09T18:32:39.377Z,21.70
2023-05-09T18:35:09.475Z,21.70
2023-05-09T18:37:39.628Z,21.70
2023-05-09T18:40:15.536Z,21.70
2023-05-09T18:42:45.333Z,21.80
2023-05-09T18:45:15.915Z,21.70
2023-05-09T18:47:44.428Z,21.50
2023-05-09T18:50:14.824Z,21.30
2023-05-09T18:52:46.164Z,21.00
2023-05-09T18:55:15.155Z,20.70
2023-05-09T18:57:45.295Z,20.40
2023-05-09T19:00:15.240Z,20.00
2023-05-09T19:02:51.486Z,19.70
2023-05-09T19:05:21.278Z,19.50
2023-05-09T19:07:52.428Z,19.20
2023-05-09T19:10:23.009Z,19.00
2023-05-09T19:12:51.868Z,18.60
2023-05-09T19:15:21.344Z,18.10
2023-05-09T19:17:55.409Z,17.70
2023-05-09T19:20:38.752Z,17.40
2023-05-09T19:23:09.351Z,17.10
2023-05-09T19:25:38.725Z,17.10
2023-05-09T19:28:08.750Z,17.00
2023-05-09T20:03:26.320Z,17.80
2023-05-09T20:13:19.142Z,17.20
2023-05-09T20:15:48.957Z,17.10
2023-05-09T20:18:19.176Z,17.20
2023-05-09T20:20:48.337Z,17.10
2023-05-09T20:23:16.999Z,17.20
2023-05-09T20:25:45.949Z,17.30
2023-05-09T20:28:19.710Z,17.20
2023-05-09T20:30:49.205Z,17.30
2023-05-09T20:33:19.378Z,17.30
2023-05-09T20:35:49.566Z,17.40
2023-05-09T20:38:18.194Z,17.30
2023-05-09T20:40:47.305Z,17.30
2023-05-09T20:43:15.954Z,17.20
2023-05-09T20:45:44.697Z,17.10
2023-05-09T20:48:13.829Z,17.10
2023-05-09T20:50:44.304Z,17.10
2023-05-09T20:53:13.760Z,17.10
2023-05-09T20:55:42.552Z,17.00
2023-05-09T20:58:14.693Z,16.90
2023-05-09T21:00:47.076Z,16.80
2023-05-09T21:03:16.110Z,16.80
2023-05-09T21:05:47.005Z,16.80
2023-05-09T21:08:16.824Z,16.90
2023-05-09T21:10:45.906Z,16.90
2023-05-09T21:13:14.996Z,16.90
2023-05-09T21:15:43.909Z,16.90
2023-05-09T21:18:12.803Z,16.90
2023-05-09T21:20:41.808Z,16.90
2023-05-09T21:23:14.682Z,16.90
2023-05-09T21:25:43.785Z,16.90
2023-05-09T21:28:16.465Z,16.90
2023-05-09T21:30:47.635Z,16.90
2023-05-09T21:33:16.372Z,17.00
2023-05-09T21:35:46.941Z,17.00
2023-05-09T21:38:19.149Z,17.10
2023-05-09T21:40:47.922Z,17.10
2023-05-09T21:43:26.323Z,17.10
2023-05-09T21:45:55.364Z,17.00
2023-05-09T21:48:24.310Z,17.00
2023-05-09T21:50:53.247Z,17.00
2023-05-09T21:53:24.028Z,17.10
2023-05-09T21:55:52.904Z,17.10
2023-05-09T21:58:21.763Z,17.10
2023-05-09T22:00:50.814Z,17.10
2023-05-09T22:03:19.497Z,17.20
2023-05-09T22:05:48.485Z,17.10
2023-05-09T22:08:17.330Z,17.10
2023-05-09T22:10:47.951Z,17.10
2023-05-09T22:13:18.719Z,17.00
2023-05-09T22:15:47.421Z,17.10
2023-05-09T22:18:17.426Z,17.10
2023-05-09T22:20:46.697Z,17.10
2023-05-09T22:23:15.661Z,17.10
2023-05-09T22:25:44.520Z,17.10
2023-05-09T22:28:15.077Z,17.10
2023-05-09T22:30:44.107Z,17.00
2023-05-09T22:33:12.846Z,17.00
2023-05-09T22:35:41.838Z,17.00
2023-05-09T22:38:10.862Z,16.90
2023-05-09T22:40:39.977Z,16.90
2023-05-09T22:43:10.634Z,16.90
2023-05-09T22:45:41.245Z,16.90
2023-05-09T22:48:10.221Z,16.80
2023-05-09T22:50:38.947Z,16.80
2023-05-09T22:53:07.650Z,16.80
2023-05-09T22:55:36.649Z,16.80
2023-05-09T22:58:05.294Z,16.80
2023-05-09T23:00:34.093Z,16.80
2023-05-09T23:03:04.814Z,16.80
2023-05-09T23:05:33.653Z,16.90
2023-05-09T23:08:03.237Z,16.90
2023-05-09T23:10:32.129Z,16.80
2023-05-09T23:13:00.985Z,16.80
2023-05-09T23:15:30.380Z,16.80
2023-05-09T23:17:59.618Z,16.80
2023-05-09T23:20:30.166Z,16.80
2023-05-09T23:22:59.050Z,16.80
2023-05-09T23:25:27.942Z,16.80
2023-05-09T23:27:56.569Z,16.90
2023-05-09T23:30:27.885Z,16.80
2023-05-09T23:32:57.115Z,16.80
2023-05-09T23:35:26.684Z,16.70
2023-05-09T23:37:57.183Z,16.70
2023-05-09T23:40:25.862Z,16.70
2023-05-09T23:42:54.402Z,16.70
2023-05-09T23:45:23.743Z,16.70
2023-05-09T23:47:52.438Z,16.70
2023-05-09T23:50:21.496Z,16.70
2023-05-09T23:52:51.254Z,16.70
2023-05-09T23:55:21.454Z,16.70
2023-05-09T23:57:50.191Z,16.70
